sensor_id;sensor_type;location;lat;lon;timestamp;P1;durP1;ratioP1;P2;durP2;ratioP2
53253;SDS011;75200;53.048;7.552;2024-03-08T00:01:40;48.65;;;26.63;;
53253;SDS011;75200;53.048;7.552;2024-03-08T00:04:06;49.30;;;25.80;;
53253;SDS011;75200;53.048;7.552;2024-03-08T00:06:33;56.38;;;27.55;;
53253;SDS011;75200;53.048;7.552;2024-03-08T00:08:59;51.08;;;26.02;;
53253;SDS011;75200;53.048;7.552;2024-03-08T00:11:25;54.88;;;26.73;;
53253;SDS011;75200;53.048;7.552;2024-03-08T00:13:52;50.50;;;27.15;;
53253;SDS011;75200;53.048;7.552;2024-03-08T00:16:20;48.08;;;25.95;;
53253;SDS011;75200;53.048;7.552;2024-03-08T00:18:48;52.92;;;26.08;;
53253;SDS011;75200;53.048;7.552;2024-03-08T00:21:14;52.80;;;26.65;;
53253;SDS011;75200;53.048;7.552;2024-03-08T00:23:40;47.38;;;25.08;;
53253;SDS011;75200;53.048;7.552;2024-03-08T00:26:07;53.17;;;27.13;;
53253;SDS011;75200;53.048;7.552;2024-03-08T00:28:33;54.65;;;25.60;;
53253;SDS011;75200;53.048;7.552;2024-03-08T00:31:02;52.60;;;25.77;;
53253;SDS011;75200;53.048;7.552;2024-03-08T00:33:28;51.40;;;26.70;;
53253;SDS011;75200;53.048;7.552;2024-03-08T00:35:54;55.63;;;27.50;;
53253;SDS011;75200;53.048;7.552;2024-03-08T00:38:20;53.50;;;26.52;;
53253;SDS011;75200;53.048;7.552;2024-03-08T00:40:46;53.78;;;27.38;;
53253;SDS011;75200;53.048;7.552;2024-03-08T00:43:13;57.85;;;27.92;;
53253;SDS011;75200;53.048;7.552;2024-03-08T00:45:40;51.63;;;26.08;;
53253;SDS011;75200;53.048;7.552;2024-03-08T00:48:09;56.22;;;25.90;;
53253;SDS011;75200;53.048;7.552;2024-03-08T00:50:36;47.63;;;26.35;;
53253;SDS011;75200;53.048;7.552;2024-03-08T00:53:02;52.28;;;25.90;;
53253;SDS011;75200;53.048;7.552;2024-03-08T00:55:29;51.08;;;25.50;;
53253;SDS011;75200;53.048;7.552;2024-03-08T00:57:56;47.70;;;26.30;;
53253;SDS011;75200;53.048;7.552;2024-03-08T01:00:22;46.50;;;24.90;;
53253;SDS011;75200;53.048;7.552;2024-03-08T01:02:49;50.88;;;25.83;;
53253;SDS011;75200;53.048;7.552;2024-03-08T01:05:15;50.00;;;24.30;;
53253;SDS011;75200;53.048;7.552;2024-03-08T01:07:41;49.63;;;25.35;;
53253;SDS011;75200;53.048;7.552;2024-03-08T01:10:07;45.72;;;23.20;;
53253;SDS011;75200;53.048;7.552;2024-03-08T01:12:36;44.03;;;22.67;;
53253;SDS011;75200;53.048;7.552;2024-03-08T01:15:02;46.45;;;23.95;;
53253;SDS011;75200;53.048;7.552;2024-03-08T01:17:29;45.30;;;22.42;;
53253;SDS011;75200;53.048;7.552;2024-03-08T01:19:56;42.85;;;23.52;;
53253;SDS011;75200;53.048;7.552;2024-03-08T01:22:23;40.45;;;22.75;;
53253;SDS011;75200;53.048;7.552;2024-03-08T01:24:49;43.35;;;23.27;;
53253;SDS011;75200;53.048;7.552;2024-03-08T01:27:15;43.30;;;24.00;;
53253;SDS011;75200;53.048;7.552;2024-03-08T01:29:41;45.33;;;23.98;;
53253;SDS011;75200;53.048;7.552;2024-03-08T01:32:08;44.53;;;23.00;;
53253;SDS011;75200;53.048;7.552;2024-03-08T01:34:34;46.95;;;22.45;;
53253;SDS011;75200;53.048;7.552;2024-03-08T01:37:00;42.28;;;21.27;;
53253;SDS011;75200;53.048;7.552;2024-03-08T01:39:26;46.55;;;23.80;;
53253;SDS011;75200;53.048;7.552;2024-03-08T01:41:52;44.20;;;22.30;;
53253;SDS011;75200;53.048;7.552;2024-03-08T01:44:19;39.53;;;22.67;;
53253;SDS011;75200;53.048;7.552;2024-03-08T01:46:45;39.97;;;21.25;;
53253;SDS011;75200;53.048;7.552;2024-03-08T01:49:12;38.25;;;23.00;;
53253;SDS011;75200;53.048;7.552;2024-03-08T01:51:40;40.13;;;21.10;;
53253;SDS011;75200;53.048;7.552;2024-03-08T01:54:07;40.72;;;22.25;;
53253;SDS011;75200;53.048;7.552;2024-03-08T01:56:35;45.55;;;21.95;;
53253;SDS011;75200;53.048;7.552;2024-03-08T01:59:01;38.97;;;21.42;;
53253;SDS011;75200;53.048;7.552;2024-03-08T02:01:28;41.80;;;21.80;;
53253;SDS011;75200;53.048;7.552;2024-03-08T02:03:54;39.38;;;20.60;;
53253;SDS011;75200;53.048;7.552;2024-03-08T02:06:20;37.80;;;22.75;;
53253;SDS011;75200;53.048;7.552;2024-03-08T02:08:46;42.60;;;21.80;;
53253;SDS011;75200;53.048;7.552;2024-03-08T02:11:13;43.92;;;22.13;;
53253;SDS011;75200;53.048;7.552;2024-03-08T02:13:39;41.13;;;22.35;;
53253;SDS011;75200;53.048;7.552;2024-03-08T02:16:05;40.55;;;21.02;;
53253;SDS011;75200;53.048;7.552;2024-03-08T02:18:33;39.63;;;22.13;;
53253;SDS011;75200;53.048;7.552;2024-03-08T02:21:04;38.92;;;21.13;;
53253;SDS011;75200;53.048;7.552;2024-03-08T02:23:31;42.67;;;20.95;;
53253;SDS011;75200;53.048;7.552;2024-03-08T02:25:58;38.65;;;20.27;;
53253;SDS011;75200;53.048;7.552;2024-03-08T02:28:24;42.92;;;20.75;;
53253;SDS011;75200;53.048;7.552;2024-03-08T02:30:51;36.83;;;19.85;;
53253;SDS011;75200;53.048;7.552;2024-03-08T02:33:20;35.63;;;19.70;;
53253;SDS011;75200;53.048;7.552;2024-03-08T02:35:47;37.40;;;20.02;;
53253;SDS011;75200;53.048;7.552;2024-03-08T02:38:20;39.08;;;19.98;;
53253;SDS011;75200;53.048;7.552;2024-03-08T02:40:48;41.60;;;20.17;;
53253;SDS011;75200;53.048;7.552;2024-03-08T02:43:14;38.13;;;20.42;;
53253;SDS011;75200;53.048;7.552;2024-03-08T02:45:41;34.92;;;19.58;;
53253;SDS011;75200;53.048;7.552;2024-03-08T02:48:09;39.90;;;21.63;;
53253;SDS011;75200;53.048;7.552;2024-03-08T02:50:36;43.28;;;21.25;;
53253;SDS011;75200;53.048;7.552;2024-03-08T02:53:02;36.30;;;20.65;;
53253;SDS011;75200;53.048;7.552;2024-03-08T02:55:29;35.65;;;19.73;;
53253;SDS011;75200;53.048;7.552;2024-03-08T02:57:55;43.53;;;21.23;;
53253;SDS011;75200;53.048;7.552;2024-03-08T03:00:21;41.80;;;20.90;;
53253;SDS011;75200;53.048;7.552;2024-03-08T03:02:48;43.30;;;21.50;;
53253;SDS011;75200;53.048;7.552;2024-03-08T03:05:19;39.47;;;20.23;;
53253;SDS011;75200;53.048;7.552;2024-03-08T03:07:45;37.22;;;20.40;;
53253;SDS011;75200;53.048;7.552;2024-03-08T03:10:12;36.20;;;21.17;;
53253;SDS011;75200;53.048;7.552;2024-03-08T03:12:42;37.28;;;20.90;;
53253;SDS011;75200;53.048;7.552;2024-03-08T03:15:08;36.65;;;20.30;;
53253;SDS011;75200;53.048;7.552;2024-03-08T03:17:34;35.83;;;20.23;;
53253;SDS011;75200;53.048;7.552;2024-03-08T03:20:00;35.38;;;19.45;;
53253;SDS011;75200;53.048;7.552;2024-03-08T03:22:34;34.53;;;19.70;;
53253;SDS011;75200;53.048;7.552;2024-03-08T03:25:00;36.65;;;19.77;;
53253;SDS011;75200;53.048;7.552;2024-03-08T03:27:27;35.22;;;20.48;;
53253;SDS011;75200;53.048;7.552;2024-03-08T03:29:55;36.15;;;20.25;;
53253;SDS011;75200;53.048;7.552;2024-03-08T03:32:22;40.40;;;20.60;;
53253;SDS011;75200;53.048;7.552;2024-03-08T03:34:49;36.80;;;19.52;;
53253;SDS011;75200;53.048;7.552;2024-03-08T03:37:18;34.55;;;20.73;;
53253;SDS011;75200;53.048;7.552;2024-03-08T03:39:45;41.92;;;20.15;;
53253;SDS011;75200;53.048;7.552;2024-03-08T03:42:17;39.58;;;20.10;;
53253;SDS011;75200;53.048;7.552;2024-03-08T03:44:47;40.42;;;20.65;;
53253;SDS011;75200;53.048;7.552;2024-03-08T03:47:14;38.05;;;20.85;;
53253;SDS011;75200;53.048;7.552;2024-03-08T03:49:43;39.78;;;21.23;;
53253;SDS011;75200;53.048;7.552;2024-03-08T03:52:10;41.00;;;21.33;;
53253;SDS011;75200;53.048;7.552;2024-03-08T03:54:36;36.88;;;20.17;;
53253;SDS011;75200;53.048;7.552;2024-03-08T03:57:02;38.40;;;20.38;;
53253;SDS011;75200;53.048;7.552;2024-03-08T03:59:28;36.40;;;20.35;;
53253;SDS011;75200;53.048;7.552;2024-03-08T04:01:55;38.67;;;20.30;;
53253;SDS011;75200;53.048;7.552;2024-03-08T04:04:21;37.10;;;19.00;;
53253;SDS011;75200;53.048;7.552;2024-03-08T04:06:49;40.10;;;21.48;;
53253;SDS011;75200;53.048;7.552;2024-03-08T04:09:16;43.10;;;21.25;;
53253;SDS011;75200;53.048;7.552;2024-03-08T04:11:47;34.40;;;20.10;;
53253;SDS011;75200;53.048;7.552;2024-03-08T04:14:15;33.28;;;19.30;;
53253;SDS011;75200;53.048;7.552;2024-03-08T04:16:41;40.17;;;20.83;;
53253;SDS011;75200;53.048;7.552;2024-03-08T04:19:07;41.38;;;19.98;;
53253;SDS011;75200;53.048;7.552;2024-03-08T04:21:35;37.47;;;20.08;;
53253;SDS011;75200;53.048;7.552;2024-03-08T04:24:01;40.67;;;21.00;;
53253;SDS011;75200;53.048;7.552;2024-03-08T04:26:27;38.42;;;19.80;;
53253;SDS011;75200;53.048;7.552;2024-03-08T04:28:53;32.55;;;18.95;;
53253;SDS011;75200;53.048;7.552;2024-03-08T04:31:19;40.72;;;20.30;;
53253;SDS011;75200;53.048;7.552;2024-03-08T04:33:46;37.25;;;19.77;;
53253;SDS011;75200;53.048;7.552;2024-03-08T04:36:13;41.13;;;19.88;;
53253;SDS011;75200;53.048;7.552;2024-03-08T04:38:39;40.75;;;21.08;;
53253;SDS011;75200;53.048;7.552;2024-03-08T04:41:06;38.00;;;19.58;;
53253;SDS011;75200;53.048;7.552;2024-03-08T04:43:33;37.05;;;19.58;;
53253;SDS011;75200;53.048;7.552;2024-03-08T04:45:59;36.33;;;19.83;;
53253;SDS011;75200;53.048;7.552;2024-03-08T04:48:25;39.53;;;20.60;;
53253;SDS011;75200;53.048;7.552;2024-03-08T04:50:54;37.17;;;20.70;;
53253;SDS011;75200;53.048;7.552;2024-03-08T04:53:21;34.85;;;19.30;;
53253;SDS011;75200;53.048;7.552;2024-03-08T04:55:47;41.40;;;19.88;;
53253;SDS011;75200;53.048;7.552;2024-03-08T04:58:13;38.63;;;21.63;;
53253;SDS011;75200;53.048;7.552;2024-03-08T05:00:39;40.80;;;20.58;;
53253;SDS011;75200;53.048;7.552;2024-03-08T05:03:05;38.55;;;20.65;;
53253;SDS011;75200;53.048;7.552;2024-03-08T05:05:31;36.17;;;19.52;;
53253;SDS011;75200;53.048;7.552;2024-03-08T05:07:58;39.20;;;19.85;;
53253;SDS011;75200;53.048;7.552;2024-03-08T05:10:26;37.42;;;20.13;;
53253;SDS011;75200;53.048;7.552;2024-03-08T05:12:52;35.90;;;19.55;;
53253;SDS011;75200;53.048;7.552;2024-03-08T05:15:18;34.25;;;20.17;;
53253;SDS011;75200;53.048;7.552;2024-03-08T05:17:46;37.30;;;20.42;;
53253;SDS011;75200;53.048;7.552;2024-03-08T05:20:12;39.65;;;21.13;;
53253;SDS011;75200;53.048;7.552;2024-03-08T05:22:38;37.67;;;19.98;;
53253;SDS011;75200;53.048;7.552;2024-03-08T05:25:08;36.38;;;19.75;;
53253;SDS011;75200;53.048;7.552;2024-03-08T05:27:35;40.17;;;21.05;;
53253;SDS011;75200;53.048;7.552;2024-03-08T05:30:02;34.45;;;20.20;;
53253;SDS011;75200;53.048;7.552;2024-03-08T05:32:31;40.17;;;20.58;;
53253;SDS011;75200;53.048;7.552;2024-03-08T05:34:57;43.53;;;21.80;;
53253;SDS011;75200;53.048;7.552;2024-03-08T05:37:24;37.78;;;20.25;;
53253;SDS011;75200;53.048;7.552;2024-03-08T05:39:50;37.90;;;20.73;;
53253;SDS011;75200;53.048;7.552;2024-03-08T05:42:16;37.00;;;21.17;;
53253;SDS011;75200;53.048;7.552;2024-03-08T05:44:42;41.53;;;20.27;;
53253;SDS011;75200;53.048;7.552;2024-03-08T05:47:08;38.47;;;20.15;;
53253;SDS011;75200;53.048;7.552;2024-03-08T05:49:36;36.47;;;19.58;;
53253;SDS011;75200;53.048;7.552;2024-03-08T05:52:02;39.92;;;20.77;;
53253;SDS011;75200;53.048;7.552;2024-03-08T05:54:28;40.63;;;21.65;;
53253;SDS011;75200;53.048;7.552;2024-03-08T05:56:54;42.03;;;21.58;;
53253;SDS011;75200;53.048;7.552;2024-03-08T05:59:20;39.00;;;20.70;;
53253;SDS011;75200;53.048;7.552;2024-03-08T06:01:48;39.97;;;21.08;;
53253;SDS011;75200;53.048;7.552;2024-03-08T06:04:14;39.15;;;21.27;;
53253;SDS011;75200;53.048;7.552;2024-03-08T06:06:43;38.25;;;21.10;;
53253;SDS011;75200;53.048;7.552;2024-03-08T06:09:09;37.80;;;20.45;;
53253;SDS011;75200;53.048;7.552;2024-03-08T06:11:36;41.80;;;22.35;;
53253;SDS011;75200;53.048;7.552;2024-03-08T06:14:03;42.30;;;22.42;;
53253;SDS011;75200;53.048;7.552;2024-03-08T06:16:29;42.58;;;22.08;;
53253;SDS011;75200;53.048;7.552;2024-03-08T06:18:58;40.35;;;23.02;;
53253;SDS011;75200;53.048;7.552;2024-03-08T06:23:55;41.55;;;20.90;;
53253;SDS011;75200;53.048;7.552;2024-03-08T06:26:25;42.20;;;22.48;;
53253;SDS011;75200;53.048;7.552;2024-03-08T06:28:53;39.92;;;21.23;;
53253;SDS011;75200;53.048;7.552;2024-03-08T06:31:19;40.22;;;21.88;;
53253;SDS011;75200;53.048;7.552;2024-03-08T06:33:46;39.63;;;22.95;;
53253;SDS011;75200;53.048;7.552;2024-03-08T06:36:15;43.38;;;24.10;;
53253;SDS011;75200;53.048;7.552;2024-03-08T06:38:44;42.85;;;21.42;;
53253;SDS011;75200;53.048;7.552;2024-03-08T06:41:11;40.20;;;20.92;;
53253;SDS011;75200;53.048;7.552;2024-03-08T06:43:44;41.55;;;22.35;;
53253;SDS011;75200;53.048;7.552;2024-03-08T06:46:10;44.60;;;22.60;;
53253;SDS011;75200;53.048;7.552;2024-03-08T06:48:38;42.03;;;21.77;;
53253;SDS011;75200;53.048;7.552;2024-03-08T06:51:04;43.78;;;22.80;;
53253;SDS011;75200;53.048;7.552;2024-03-08T06:53:30;38.28;;;22.40;;
53253;SDS011;75200;53.048;7.552;2024-03-08T06:55:59;41.10;;;23.60;;
53253;SDS011;75200;53.048;7.552;2024-03-08T06:58:26;41.90;;;22.73;;
53253;SDS011;75200;53.048;7.552;2024-03-08T07:00:52;42.65;;;23.00;;
53253;SDS011;75200;53.048;7.552;2024-03-08T07:03:19;39.20;;;21.85;;
53253;SDS011;75200;53.048;7.552;2024-03-08T07:05:47;45.40;;;23.45;;
53253;SDS011;75200;53.048;7.552;2024-03-08T07:08:13;36.58;;;22.15;;
53253;SDS011;75200;53.048;7.552;2024-03-08T07:10:40;41.10;;;22.92;;
53253;SDS011;75200;53.048;7.552;2024-03-08T07:13:07;40.38;;;22.92;;
53253;SDS011;75200;53.048;7.552;2024-03-08T07:15:33;37.67;;;21.95;;
53253;SDS011;75200;53.048;7.552;2024-03-08T07:18:00;41.92;;;23.92;;
53253;SDS011;75200;53.048;7.552;2024-03-08T07:20:27;39.65;;;22.60;;
53253;SDS011;75200;53.048;7.552;2024-03-08T07:22:53;38.03;;;22.70;;
53253;SDS011;75200;53.048;7.552;2024-03-08T07:25:20;40.05;;;23.17;;
53253;SDS011;75200;53.048;7.552;2024-03-08T07:27:50;35.10;;;21.00;;
53253;SDS011;75200;53.048;7.552;2024-03-08T07:30:20;37.90;;;22.83;;
53253;SDS011;75200;53.048;7.552;2024-03-08T07:33:05;37.55;;;22.50;;
53253;SDS011;75200;53.048;7.552;2024-03-08T07:35:32;38.08;;;23.13;;
53253;SDS011;75200;53.048;7.552;2024-03-08T07:38:02;39.78;;;23.08;;
53253;SDS011;75200;53.048;7.552;2024-03-08T07:40:28;38.38;;;22.58;;
53253;SDS011;75200;53.048;7.552;2024-03-08T07:42:54;41.85;;;24.55;;
53253;SDS011;75200;53.048;7.552;2024-03-08T07:45:20;37.13;;;21.90;;
53253;SDS011;75200;53.048;7.552;2024-03-08T07:47:47;43.80;;;24.10;;
53253;SDS011;75200;53.048;7.552;2024-03-08T07:50:13;36.70;;;22.48;;
53253;SDS011;75200;53.048;7.552;2024-03-08T07:52:41;36.53;;;21.52;;
53253;SDS011;75200;53.048;7.552;2024-03-08T07:55:08;35.65;;;21.48;;
53253;SDS011;75200;53.048;7.552;2024-03-08T07:57:35;30.13;;;19.90;;
53253;SDS011;75200;53.048;7.552;2024-03-08T08:00:04;36.65;;;21.50;;
53253;SDS011;75200;53.048;7.552;2024-03-08T08:02:33;34.60;;;21.52;;
53253;SDS011;75200;53.048;7.552;2024-03-08T08:05:00;35.88;;;23.27;;
53253;SDS011;75200;53.048;7.552;2024-03-08T08:07:26;42.17;;;26.00;;
53253;SDS011;75200;53.048;7.552;2024-03-08T08:09:53;35.40;;;23.27;;
53253;SDS011;75200;53.048;7.552;2024-03-08T08:12:19;34.83;;;21.52;;
53253;SDS011;75200;53.048;7.552;2024-03-08T08:14:46;35.50;;;23.25;;
53253;SDS011;75200;53.048;7.552;2024-03-08T08:17:12;38.45;;;21.98;;
53253;SDS011;75200;53.048;7.552;2024-03-08T08:19:40;36.67;;;22.40;;
53253;SDS011;75200;53.048;7.552;2024-03-08T08:22:06;35.20;;;22.70;;
53253;SDS011;75200;53.048;7.552;2024-03-08T08:24:34;32.53;;;21.27;;
53253;SDS011;75200;53.048;7.552;2024-03-08T08:27:02;33.63;;;22.02;;
53253;SDS011;75200;53.048;7.552;2024-03-08T08:29:28;33.97;;;21.33;;
53253;SDS011;75200;53.048;7.552;2024-03-08T08:31:57;33.28;;;21.55;;
53253;SDS011;75200;53.048;7.552;2024-03-08T08:34:24;36.90;;;21.10;;
53253;SDS011;75200;53.048;7.552;2024-03-08T08:36:51;37.03;;;22.17;;
53253;SDS011;75200;53.048;7.552;2024-03-08T08:39:18;37.28;;;22.85;;
53253;SDS011;75200;53.048;7.552;2024-03-08T08:41:44;36.83;;;21.73;;
53253;SDS011;75200;53.048;7.552;2024-03-08T08:44:10;33.47;;;21.17;;
53253;SDS011;75200;53.048;7.552;2024-03-08T08:46:37;35.45;;;23.13;;
53253;SDS011;75200;53.048;7.552;2024-03-08T08:49:04;32.63;;;20.23;;
53253;SDS011;75200;53.048;7.552;2024-03-08T08:51:31;33.60;;;22.15;;
53253;SDS011;75200;53.048;7.552;2024-03-08T08:53:58;34.90;;;23.38;;
53253;SDS011;75200;53.048;7.552;2024-03-08T08:56:25;36.08;;;22.05;;
53253;SDS011;75200;53.048;7.552;2024-03-08T08:58:51;34.70;;;21.55;;
53253;SDS011;75200;53.048;7.552;2024-03-08T09:01:18;33.25;;;22.23;;
53253;SDS011;75200;53.048;7.552;2024-03-08T09:03:45;31.30;;;20.90;;
53253;SDS011;75200;53.048;7.552;2024-03-08T09:06:15;31.10;;;19.48;;
53253;SDS011;75200;53.048;7.552;2024-03-08T09:08:42;33.15;;;22.52;;
53253;SDS011;75200;53.048;7.552;2024-03-08T09:11:11;32.30;;;20.85;;
53253;SDS011;75200;53.048;7.552;2024-03-08T09:13:37;39.10;;;24.05;;
53253;SDS011;75200;53.048;7.552;2024-03-08T09:16:03;33.90;;;21.05;;
53253;SDS011;75200;53.048;7.552;2024-03-08T09:18:32;32.80;;;22.25;;
53253;SDS011;75200;53.048;7.552;2024-03-08T09:20:59;33.63;;;21.92;;
53253;SDS011;75200;53.048;7.552;2024-03-08T09:23:25;31.73;;;21.48;;
53253;SDS011;75200;53.048;7.552;2024-03-08T09:25:58;31.23;;;20.98;;
53253;SDS011;75200;53.048;7.552;2024-03-08T09:28:24;33.15;;;21.85;;
53253;SDS011;75200;53.048;7.552;2024-03-08T09:30:51;30.85;;;19.42;;
53253;SDS011;75200;53.048;7.552;2024-03-08T09:33:18;32.38;;;20.20;;
53253;SDS011;75200;53.048;7.552;2024-03-08T09:35:45;32.10;;;20.80;;
53253;SDS011;75200;53.048;7.552;2024-03-08T09:38:16;33.47;;;21.10;;
53253;SDS011;75200;53.048;7.552;2024-03-08T09:40:42;32.78;;;21.27;;
53253;SDS011;75200;53.048;7.552;2024-03-08T09:43:11;35.45;;;22.38;;
53253;SDS011;75200;53.048;7.552;2024-03-08T09:45:38;33.50;;;21.40;;
53253;SDS011;75200;53.048;7.552;2024-03-08T09:48:08;29.40;;;20.58;;
53253;SDS011;75200;53.048;7.552;2024-03-08T09:50:38;33.28;;;21.38;;
53253;SDS011;75200;53.048;7.552;2024-03-08T09:53:04;30.48;;;21.73;;
53253;SDS011;75200;53.048;7.552;2024-03-08T09:55:34;30.73;;;21.60;;
53253;SDS011;75200;53.048;7.552;2024-03-08T09:58:07;34.40;;;22.17;;
53253;SDS011;75200;53.048;7.552;2024-03-08T10:00:41;33.65;;;21.55;;
53253;SDS011;75200;53.048;7.552;2024-03-08T10:03:07;29.98;;;22.25;;
53253;SDS011;75200;53.048;7.552;2024-03-08T10:05:34;33.40;;;22.98;;
53253;SDS011;75200;53.048;7.552;2024-03-08T10:08:03;33.45;;;20.45;;
53253;SDS011;75200;53.048;7.552;2024-03-08T10:10:33;31.65;;;21.20;;
53253;SDS011;75200;53.048;7.552;2024-03-08T10:13:05;32.85;;;22.35;;
53253;SDS011;75200;53.048;7.552;2024-03-08T10:15:35;32.28;;;21.60;;
53253;SDS011;75200;53.048;7.552;2024-03-08T10:18:01;32.42;;;22.00;;
53253;SDS011;75200;53.048;7.552;2024-03-08T10:20:28;30.60;;;21.42;;
53253;SDS011;75200;53.048;7.552;2024-03-08T10:22:59;35.55;;;22.55;;
53253;SDS011;75200;53.048;7.552;2024-03-08T10:25:28;39.35;;;23.45;;
53253;SDS011;75200;53.048;7.552;2024-03-08T10:27:55;32.78;;;21.67;;
53253;SDS011;75200;53.048;7.552;2024-03-08T10:30:21;31.48;;;22.55;;
53253;SDS011;75200;53.048;7.552;2024-03-08T10:32:48;30.35;;;21.42;;
53253;SDS011;75200;53.048;7.552;2024-03-08T10:35:14;31.70;;;21.35;;
53253;SDS011;75200;53.048;7.552;2024-03-08T10:37:48;32.55;;;21.48;;
53253;SDS011;75200;53.048;7.552;2024-03-08T10:40:19;31.92;;;20.77;;
53253;SDS011;75200;53.048;7.552;2024-03-08T10:48:43;32.17;;;22.25;;
53253;SDS011;75200;53.048;7.552;2024-03-08T10:51:02;30.55;;;20.83;;
53253;SDS011;75200;53.048;7.552;2024-03-08T10:53:28;33.83;;;21.27;;
53253;SDS011;75200;53.048;7.552;2024-03-08T10:55:57;28.83;;;20.80;;
53253;SDS011;75200;53.048;7.552;2024-03-08T10:58:26;31.55;;;22.40;;
53253;SDS011;75200;53.048;7.552;2024-03-08T11:00:53;28.42;;;20.20;;
53253;SDS011;75200;53.048;7.552;2024-03-08T11:06:08;30.17;;;21.25;;
53253;SDS011;75200;53.048;7.552;2024-03-08T11:08:40;27.15;;;20.42;;
53253;SDS011;75200;53.048;7.552;2024-03-08T11:11:11;28.88;;;20.55;;
53253;SDS011;75200;53.048;7.552;2024-03-08T11:13:58;29.85;;;19.70;;
53253;SDS011;75200;53.048;7.552;2024-03-08T11:19:00;24.73;;;18.30;;
53253;SDS011;75200;53.048;7.552;2024-03-08T11:21:30;27.23;;;18.90;;
53253;SDS011;75200;53.048;7.552;2024-03-08T11:23:59;28.40;;;19.25;;
53253;SDS011;75200;53.048;7.552;2024-03-08T11:26:25;27.50;;;19.17;;
53253;SDS011;75200;53.048;7.552;2024-03-08T11:28:51;27.88;;;19.83;;
53253;SDS011;75200;53.048;7.552;2024-03-08T11:31:22;26.40;;;18.70;;
53253;SDS011;75200;53.048;7.552;2024-03-08T11:33:49;28.02;;;18.80;;
53253;SDS011;75200;53.048;7.552;2024-03-08T11:36:24;24.10;;;18.33;;
53253;SDS011;75200;53.048;7.552;2024-03-08T11:38:50;25.02;;;18.48;;
53253;SDS011;75200;53.048;7.552;2024-03-08T11:41:22;26.88;;;17.75;;
53253;SDS011;75200;53.048;7.552;2024-03-08T11:43:49;25.77;;;18.38;;
53253;SDS011;75200;53.048;7.552;2024-03-08T11:46:30;26.35;;;18.38;;
53253;SDS011;75200;53.048;7.552;2024-03-08T11:48:56;23.60;;;17.13;;
53253;SDS011;75200;53.048;7.552;2024-03-08T11:51:22;26.77;;;18.65;;
53253;SDS011;75200;53.048;7.552;2024-03-08T11:53:49;24.40;;;17.55;;
53253;SDS011;75200;53.048;7.552;2024-03-08T11:56:16;25.33;;;18.13;;
53253;SDS011;75200;53.048;7.552;2024-03-08T11:58:52;24.27;;;17.48;;
53253;SDS011;75200;53.048;7.552;2024-03-08T12:01:22;22.65;;;16.80;;
53253;SDS011;75200;53.048;7.552;2024-03-08T12:03:54;22.00;;;16.45;;
53253;SDS011;75200;53.048;7.552;2024-03-08T12:06:24;22.55;;;15.43;;
53253;SDS011;75200;53.048;7.552;2024-03-08T12:08:50;22.67;;;16.58;;
53253;SDS011;75200;53.048;7.552;2024-03-08T12:11:22;23.92;;;16.40;;
53253;SDS011;75200;53.048;7.552;2024-03-08T12:13:49;24.58;;;16.63;;
53253;SDS011;75200;53.048;7.552;2024-03-08T12:16:19;22.95;;;16.88;;
53253;SDS011;75200;53.048;7.552;2024-03-08T12:18:46;22.05;;;16.50;;
53253;SDS011;75200;53.048;7.552;2024-03-08T12:21:13;24.30;;;16.45;;
53253;SDS011;75200;53.048;7.552;2024-03-08T12:23:42;21.30;;;15.98;;
53253;SDS011;75200;53.048;7.552;2024-03-08T12:26:13;20.52;;;16.23;;
53253;SDS011;75200;53.048;7.552;2024-03-08T12:31:13;20.00;;;15.30;;
53253;SDS011;75200;53.048;7.552;2024-03-08T12:33:52;20.05;;;14.88;;
53253;SDS011;75200;53.048;7.552;2024-03-08T12:36:20;18.60;;;15.27;;
53253;SDS011;75200;53.048;7.552;2024-03-08T12:38:49;19.08;;;15.30;;
53253;SDS011;75200;53.048;7.552;2024-03-08T12:41:15;20.27;;;15.20;;
53253;SDS011;75200;53.048;7.552;2024-03-08T12:43:42;19.83;;;14.18;;
53253;SDS011;75200;53.048;7.552;2024-03-08T12:46:20;21.58;;;15.48;;
53253;SDS011;75200;53.048;7.552;2024-03-08T12:48:47;20.58;;;15.43;;
53253;SDS011;75200;53.048;7.552;2024-03-08T12:51:16;20.50;;;15.95;;
53253;SDS011;75200;53.048;7.552;2024-03-08T12:53:46;19.98;;;14.90;;
53253;SDS011;75200;53.048;7.552;2024-03-08T12:56:16;20.02;;;15.15;;
53253;SDS011;75200;53.048;7.552;2024-03-08T12:58:53;19.88;;;15.70;;
53253;SDS011;75200;53.048;7.552;2024-03-08T13:01:19;19.73;;;16.38;;
53253;SDS011;75200;53.048;7.552;2024-03-08T13:03:45;19.23;;;15.50;;
53253;SDS011;75200;53.048;7.552;2024-03-08T13:06:11;22.35;;;16.33;;
53253;SDS011;75200;53.048;7.552;2024-03-08T13:08:37;20.45;;;16.05;;
53253;SDS011;75200;53.048;7.552;2024-03-08T13:11:06;19.90;;;16.33;;
53253;SDS011;75200;53.048;7.552;2024-03-08T13:13:33;20.38;;;15.15;;
53253;SDS011;75200;53.048;7.552;2024-03-08T13:16:05;18.75;;;15.52;;
53253;SDS011;75200;53.048;7.552;2024-03-08T13:18:36;18.98;;;15.10;;
53253;SDS011;75200;53.048;7.552;2024-03-08T13:21:03;21.27;;;16.35;;
53253;SDS011;75200;53.048;7.552;2024-03-08T13:23:33;19.45;;;15.48;;
53253;SDS011;75200;53.048;7.552;2024-03-08T13:26:09;19.85;;;15.90;;
53253;SDS011;75200;53.048;7.552;2024-03-08T13:28:46;19.60;;;16.05;;
53253;SDS011;75200;53.048;7.552;2024-03-08T13:31:21;20.38;;;16.23;;
53253;SDS011;75200;53.048;7.552;2024-03-08T13:33:47;18.60;;;15.43;;
53253;SDS011;75200;53.048;7.552;2024-03-08T13:36:13;20.02;;;15.07;;
53253;SDS011;75200;53.048;7.552;2024-03-08T13:38:49;19.92;;;16.17;;
53253;SDS011;75200;53.048;7.552;2024-03-08T13:41:15;20.73;;;16.35;;
53253;SDS011;75200;53.048;7.552;2024-03-08T13:43:45;20.35;;;15.90;;
53253;SDS011;75200;53.048;7.552;2024-03-08T13:46:12;20.50;;;15.80;;
53253;SDS011;75200;53.048;7.552;2024-03-08T13:48:38;19.60;;;15.63;;
53253;SDS011;75200;53.048;7.552;2024-03-08T13:51:06;20.65;;;17.23;;
53253;SDS011;75200;53.048;7.552;2024-03-08T13:53:33;21.38;;;16.05;;
53253;SDS011;75200;53.048;7.552;2024-03-08T13:56:00;19.02;;;15.80;;
53253;SDS011;75200;53.048;7.552;2024-03-08T13:58:30;23.38;;;17.40;;
53253;SDS011;75200;53.048;7.552;2024-03-08T14:00:56;20.98;;;17.08;;
53253;SDS011;75200;53.048;7.552;2024-03-08T14:03:22;21.83;;;16.17;;
53253;SDS011;75200;53.048;7.552;2024-03-08T14:05:49;19.45;;;16.02;;
53253;SDS011;75200;53.048;7.552;2024-03-08T14:08:15;21.90;;;17.15;;
53253;SDS011;75200;53.048;7.552;2024-03-08T14:10:42;20.33;;;16.13;;
53253;SDS011;75200;53.048;7.552;2024-03-08T14:13:08;19.90;;;16.95;;
53253;SDS011;75200;53.048;7.552;2024-03-08T14:15:34;22.92;;;16.50;;
53253;SDS011;75200;53.048;7.552;2024-03-08T14:18:00;18.98;;;15.70;;
53253;SDS011;75200;53.048;7.552;2024-03-08T14:20:27;19.60;;;15.88;;
53253;SDS011;75200;53.048;7.552;2024-03-08T14:22:53;19.75;;;16.55;;
53253;SDS011;75200;53.048;7.552;2024-03-08T14:25:23;19.90;;;15.90;;
53253;SDS011;75200;53.048;7.552;2024-03-08T14:27:50;18.88;;;15.63;;
53253;SDS011;75200;53.048;7.552;2024-03-08T14:30:19;19.55;;;15.70;;
53253;SDS011;75200;53.048;7.552;2024-03-08T14:33:03;21.35;;;15.18;;
53253;SDS011;75200;53.048;7.552;2024-03-08T14:35:31;20.73;;;16.05;;
53253;SDS011;75200;53.048;7.552;2024-03-08T14:37:57;18.58;;;15.38;;
53253;SDS011;75200;53.048;7.552;2024-03-08T14:40:26;18.23;;;14.70;;